createdAt,value
2023-03-28T00:01:08.129Z,1.05
2023-03-28T00:03:39.360Z,1.13
2023-03-28T00:06:11.121Z,0.93
2023-03-28T00:08:40.193Z,1.02
2023-03-28T00:11:19.542Z,1.00
2023-03-28T00:14:03.409Z,0.88
2023-03-28T00:16:35.637Z,1.23
2023-03-28T00:19:08.255Z,0.70
2023-03-28T00:21:39.698Z,0.90
2023-03-28T00:24:13.665Z,1.02
2023-03-28T00:26:42.867Z,0.88
2023-03-28T00:29:20.997Z,0.90
2023-03-28T00:31:50.612Z,0.80
2023-03-28T00:34:18.160Z,0.68
2023-03-28T00:36:45.298Z,0.68
2023-03-28T00:39:13.496Z,0.80
2023-03-28T00:41:43.772Z,0.80
2023-03-28T00:44:47.836Z,0.80
2023-03-28T00:47:27.485Z,0.90
2023-03-28T00:50:23.759Z,0.70
2023-03-28T00:53:02.128Z,1.08
2023-03-28T00:55:59.516Z,1.10
2023-03-28T00:58:31.953Z,0.70
2023-03-28T01:00:59.357Z,0.90
2023-03-28T01:03:34.248Z,0.85
2023-03-28T01:06:06.135Z,0.70
2023-03-28T01:08:43.725Z,0.98
2023-03-28T01:11:13.132Z,1.13
2023-03-28T01:13:49.223Z,0.90
2023-03-28T01:16:20.949Z,1.08
2023-03-28T01:18:51.636Z,0.60
2023-03-28T01:21:48.395Z,0.70
2023-03-28T01:24:54.485Z,0.60
2023-03-28T01:28:05.418Z,0.80
2023-03-28T01:31:37.019Z,0.75
2023-03-28T01:34:57.028Z,0.57
2023-03-28T01:38:01.419Z,0.60
2023-03-28T01:41:08.361Z,0.85
2023-03-28T01:44:05.431Z,0.57
2023-03-28T01:46:59.741Z,1.00
2023-03-28T01:49:47.031Z,1.00
2023-03-28T01:52:49.568Z,0.75
2023-03-28T01:55:23.126Z,0.70
2023-03-28T01:58:06.646Z,0.90
2023-03-28T02:00:56.308Z,1.00
2023-03-28T02:03:31.793Z,1.23
2023-03-28T02:06:09.935Z,0.82
2023-03-28T02:08:41.504Z,0.70
2023-03-28T02:11:35.524Z,0.98
2023-03-28T02:14:16.800Z,0.80
2023-03-28T02:17:04.910Z,1.02
2023-03-28T02:19:59.388Z,1.02
2023-03-28T02:23:14.606Z,0.85
2023-03-28T02:26:00.370Z,0.70
2023-03-28T02:28:44.787Z,0.82
2023-03-28T02:31:37.556Z,0.80
2023-03-28T02:34:04.651Z,0.85
2023-03-28T02:37:03.709Z,0.90
2023-03-28T02:39:53.903Z,1.27
2023-03-28T02:42:40.857Z,0.70
2023-03-28T02:45:22.635Z,1.00
2023-03-28T02:48:29.030Z,0.90
2023-03-28T02:51:17.891Z,0.90
2023-03-28T02:54:13.780Z,0.98
2023-03-28T02:57:05.164Z,0.60
2023-03-28T02:59:57.066Z,0.77
2023-03-28T03:02:24.286Z,0.90
2023-03-28T03:04:51.785Z,0.77
2023-03-28T03:07:19.393Z,0.85
2023-03-28T03:09:47.138Z,0.98
2023-03-28T03:12:14.316Z,0.90
2023-03-28T03:14:41.914Z,0.88
2023-03-28T03:17:40.671Z,1.00
2023-03-28T03:20:09.272Z,0.88
2023-03-28T03:22:39.401Z,0.93
2023-03-28T03:25:08.197Z,0.82
2023-03-28T03:27:45.286Z,1.02
2023-03-28T03:30:12.539Z,0.75
2023-03-28T03:33:00.539Z,0.90
2023-03-28T03:35:33.463Z,0.50
2023-03-28T03:38:04.615Z,0.90
2023-03-28T03:40:31.901Z,1.08
2023-03-28T03:42:59.685Z,1.10
2023-03-28T03:45:26.974Z,1.30
2023-03-28T03:47:54.029Z,0.80
2023-03-28T03:50:21.151Z,0.80
2023-03-28T03:52:48.109Z,1.00
2023-03-28T03:55:15.182Z,0.93
2023-03-28T03:57:43.581Z,0.95
2023-03-28T04:00:11.881Z,0.80
2023-03-28T04:02:48.687Z,0.90
2023-03-28T04:05:22.027Z,0.93
2023-03-28T04:08:09.437Z,0.90
2023-03-28T04:10:39.649Z,0.73
2023-03-28T04:13:06.594Z,0.77
2023-03-28T04:15:35.007Z,0.80
2023-03-28T04:18:05.653Z,1.05
2023-03-28T04:20:40.322Z,0.75
2023-03-28T04:23:08.429Z,0.68
2023-03-28T04:25:36.838Z,0.77
2023-03-28T04:28:09.237Z,0.73
2023-03-28T04:30:43.366Z,0.60
2023-03-28T04:33:47.732Z,0.80
2023-03-28T04:36:18.289Z,0.93
2023-03-28T04:38:52.108Z,0.88
2023-03-28T04:41:39.117Z,1.20
2023-03-28T04:44:24.771Z,0.93
2023-03-28T04:46:59.632Z,1.15
2023-03-28T04:49:27.034Z,1.27
2023-03-28T04:51:54.816Z,0.90
2023-03-28T04:54:21.841Z,1.13
2023-03-28T04:56:49.256Z,1.50
2023-03-28T04:59:23.029Z,0.80
2023-03-28T05:01:51.593Z,1.27
2023-03-28T05:04:37.261Z,1.17
2023-03-28T05:07:06.917Z,1.45
2023-03-28T05:09:34.559Z,0.95
2023-03-28T05:12:01.532Z,1.45
2023-03-28T05:14:29.504Z,1.33
2023-03-28T05:17:08.321Z,1.85
2023-03-28T05:19:48.647Z,1.60
2023-03-28T05:22:18.556Z,1.50
2023-03-28T05:24:45.566Z,1.50
2023-03-28T05:29:45.482Z,1.35
2023-03-28T05:32:12.894Z,1.52
2023-03-28T05:34:41.159Z,1.15
2023-03-28T05:37:09.213Z,1.63
2023-03-28T05:39:45.985Z,1.58
2023-03-28T05:42:13.358Z,1.40
2023-03-28T05:44:40.748Z,1.70
2023-03-28T05:47:38.931Z,2.03
2023-03-28T05:50:07.268Z,1.60
2023-03-28T05:52:34.411Z,1.67
2023-03-28T05:55:07.252Z,1.85
2023-03-28T05:57:34.696Z,1.90
2023-03-28T06:00:15.278Z,1.60
2023-03-28T06:02:52.319Z,1.63
2023-03-28T06:05:23.867Z,1.80
2023-03-28T06:07:51.575Z,1.60
2023-03-28T06:10:19.754Z,1.90
2023-03-28T06:13:12.963Z,1.65
2023-03-28T06:15:40.005Z,1.95
2023-03-28T06:18:07.042Z,2.25
2023-03-28T06:20:39.398Z,1.80
2023-03-28T06:23:06.343Z,1.65
2023-03-28T06:25:33.395Z,1.63
2023-03-28T06:28:00.651Z,1.70
2023-03-28T06:30:27.800Z,2.05
2023-03-28T06:32:55.063Z,1.70
2023-03-28T06:35:22.091Z,1.83
2023-03-28T06:37:49.056Z,1.52
2023-03-28T06:40:22.573Z,1.65
2023-03-28T06:42:49.653Z,1.52
2023-03-28T06:45:22.563Z,1.58
2023-03-28T06:47:57.599Z,1.85
2023-03-28T06:50:38.267Z,1.30
2023-03-28T06:53:10.388Z,1.50
2023-03-28T06:55:37.478Z,1.90
2023-03-28T06:58:04.479Z,1.77
2023-03-28T07:00:41.911Z,1.73
2023-03-28T07:03:36.745Z,1.90
2023-03-28T07:06:08.256Z,1.88
2023-03-28T07:08:36.598Z,1.63
2023-03-28T07:11:04.530Z,1.70
2023-03-28T07:13:32.777Z,1.40
2023-03-28T07:16:11.331Z,1.60
2023-03-28T07:18:38.535Z,1.50
2023-03-28T07:21:15.911Z,1.83
2023-03-28T07:23:44.683Z,1.48
2023-03-28T07:26:15.977Z,1.20
2023-03-28T07:28:43.112Z,1.17
2023-03-28T07:31:11.359Z,1.70
2023-03-28T07:33:38.720Z,1.40
2023-03-28T07:36:15.040Z,1.35
2023-03-28T07:38:46.010Z,1.20
2023-03-28T07:41:15.260Z,1.17
2023-03-28T07:43:42.214Z,0.95
2023-03-28T07:46:17.078Z,1.02
2023-03-28T07:48:46.292Z,1.02
2023-03-28T07:51:14.234Z,1.23
2023-03-28T07:53:41.819Z,1.58
2023-03-28T07:56:10.467Z,1.48
2023-03-28T07:59:01.857Z,1.30
2023-03-28T08:01:28.885Z,1.45
2023-03-28T08:04:00.914Z,1.40
2023-03-28T08:06:38.386Z,1.58
2023-03-28T08:09:08.240Z,1.48
2023-03-28T08:11:41.798Z,1.60
2023-03-28T08:14:13.206Z,1.70
2023-03-28T08:16:41.073Z,2.00
2023-03-28T08:19:11.757Z,1.90
2023-03-28T08:22:02.484Z,1.77
2023-03-28T08:24:36.191Z,1.58
2023-03-28T08:27:20.992Z,2.13
2023-03-28T08:29:51.591Z,1.63
2023-03-28T08:32:19.101Z,1.95
2023-03-28T08:34:46.983Z,1.50
2023-03-28T08:37:17.234Z,2.28
2023-03-28T08:39:47.108Z,2.53
2023-03-28T08:42:28.902Z,1.83
2023-03-28T08:45:17.974Z,1.60
2023-03-28T08:48:11.817Z,1.75
2023-03-28T08:50:50.581Z,1.83
2023-03-28T08:53:30.739Z,1.77
2023-03-28T08:56:01.279Z,2.17
2023-03-28T08:58:52.790Z,1.75
2023-03-28T09:01:20.931Z,1.13
2023-03-28T09:03:49.976Z,1.30
2023-03-28T09:06:40.252Z,1.25
2023-03-28T09:09:27.106Z,1.08
2023-03-28T09:15:56.925Z,1.23
2023-03-28T09:19:08.492Z,1.02
2023-03-28T09:24:48.682Z,1.48
2023-03-28T09:27:21.537Z,1.00
2023-03-28T09:29:51.917Z,1.48
2023-03-28T09:32:28.627Z,1.57
2023-03-28T09:34:56.731Z,0.90
2023-03-28T09:37:49.271Z,1.27
2023-03-28T09:40:29.626Z,0.95
2023-03-28T09:43:40.625Z,1.08
2023-03-28T09:46:39.615Z,1.00
2023-03-28T09:49:26.253Z,0.98
2023-03-28T09:52:01.084Z,1.00
2023-03-28T09:54:37.448Z,1.40
2023-03-28T09:57:05.740Z,1.10
2023-03-28T09:59:47.692Z,1.00
2023-03-28T10:02:32.647Z,0.85
2023-03-28T10:05:40.640Z,0.75
2023-03-28T10:08:40.742Z,0.57
2023-03-28T10:11:22.732Z,0.50
2023-03-28T10:13:51.949Z,0.90
2023-03-28T10:16:30.066Z,1.33
2023-03-28T10:19:26.166Z,1.08
2023-03-28T10:22:39.102Z,0.90
2023-03-28T10:25:15.843Z,0.98
2023-03-28T10:27:44.718Z,1.67
2023-03-28T10:30:22.657Z,1.38
2023-03-28T10:33:16.153Z,0.65
2023-03-28T10:36:33.936Z,1.08
2023-03-28T10:39:29.073Z,1.60
2023-03-28T10:42:16.012Z,1.00
2023-03-28T10:45:01.147Z,1.10
2023-03-28T10:47:31.300Z,0.90
2023-03-28T10:50:02.873Z,0.90
2023-03-28T10:53:10.541Z,0.82
2023-03-28T10:56:02.753Z,0.70
2023-03-28T10:59:14.718Z,0.90
2023-03-28T11:02:06.895Z,1.00
2023-03-28T11:05:02.021Z,1.10
2023-03-28T11:08:20.598Z,1.38
2023-03-28T11:11:11.103Z,0.90
2023-03-28T11:14:17.491Z,0.77
2023-03-28T11:17:11.359Z,0.77
2023-03-28T11:23:38.578Z,0.90
2023-03-28T11:26:45.279Z,0.70
2023-03-28T11:29:45.920Z,0.88
2023-03-28T11:32:44.464Z,0.90
2023-03-28T11:38:22.134Z,0.80
2023-03-28T11:41:12.947Z,1.08
2023-03-28T11:44:31.463Z,0.82
2023-03-28T11:47:21.065Z,1.42
2023-03-28T11:50:15.050Z,0.80
2023-03-28T11:53:10.403Z,0.70
2023-03-28T11:56:00.237Z,1.00
2023-03-28T11:58:52.260Z,0.90
2023-03-28T12:01:26.981Z,0.85
2023-03-28T12:04:05.763Z,0.93
2023-03-28T12:07:02.577Z,0.82
2023-03-28T12:10:08.721Z,0.90
2023-03-28T12:13:02.985Z,1.00
2023-03-28T12:15:59.265Z,1.08
2023-03-28T12:18:37.226Z,0.82
2023-03-28T12:21:23.278Z,0.60
2023-03-28T12:24:35.734Z,0.98
2023-03-28T12:27:27.746Z,0.95
2023-03-28T12:30:05.544Z,0.95
2023-03-28T12:32:58.177Z,0.88
2023-03-28T12:35:58.132Z,0.88
2023-03-28T12:38:47.730Z,0.68
2023-03-28T12:41:32.445Z,1.08
2023-03-28T12:44:22.743Z,0.70
2023-03-28T12:47:07.745Z,1.42
2023-03-28T12:49:46.293Z,1.20
2023-03-28T12:52:43.799Z,0.80
2023-03-28T12:55:24.423Z,0.80
2023-03-28T12:58:10.753Z,0.73
2023-03-28T13:01:07.531Z,0.93
2023-03-28T13:03:40.621Z,0.60
2023-03-28T13:06:30.522Z,0.80
2023-03-28T13:09:47.893Z,0.80
2023-03-28T13:13:10.702Z,0.90
2023-03-28T13:16:06.550Z,0.80
2023-03-28T13:18:34.906Z,0.82
2023-03-28T13:21:05.299Z,0.70
2023-03-28T13:23:44.637Z,0.85
2023-03-28T13:26:11.643Z,0.88
2023-03-28T13:28:52.651Z,1.00
2023-03-28T13:34:00.754Z,0.70
2023-03-28T13:36:36.863Z,0.80
2023-03-28T13:39:27.464Z,0.75
2023-03-28T13:41:58.228Z,1.27
2023-03-28T13:47:26.042Z,1.00
2023-03-28T13:50:26.435Z,1.13
2023-03-28T13:52:53.444Z,1.00
2023-03-28T13:55:26.254Z,1.13
2023-03-28T13:57:53.684Z,1.02
2023-03-28T14:00:25.776Z,0.90
2023-03-28T14:03:00.983Z,1.10
2023-03-28T14:05:32.030Z,0.77
2023-03-28T14:08:13.975Z,0.98
2023-03-28T14:10:46.452Z,0.82
2023-03-28T14:13:29.995Z,0.95
2023-03-28T14:15:59.680Z,1.05
2023-03-28T14:18:36.467Z,1.00
2023-03-28T14:21:06.626Z,1.65
2023-03-28T14:23:38.438Z,2.40
2023-03-28T14:26:22.038Z,2.35
2023-03-28T14:28:51.579Z,2.45
2023-03-28T14:31:34.793Z,1.30
2023-03-28T14:34:16.823Z,1.10
2023-03-28T14:37:18.329Z,0.90
2023-03-28T14:39:45.689Z,0.75
2023-03-28T14:42:18.010Z,0.98
2023-03-28T14:44:53.293Z,0.73
2023-03-28T14:47:28.016Z,1.05
2023-03-28T14:49:55.683Z,1.25
2023-03-28T14:52:30.136Z,1.02
2023-03-28T14:54:58.563Z,1.10
2023-03-28T14:57:26.562Z,0.98
2023-03-28T14:59:56.909Z,1.00
2023-03-28T15:02:41.224Z,1.70
2023-03-28T15:05:17.809Z,1.30
2023-03-28T15:07:46.549Z,1.25
2023-03-28T15:10:23.185Z,1.05
2023-03-28T15:13:22.006Z,1.15
2023-03-28T15:15:53.552Z,1.20
2023-03-28T15:18:28.513Z,1.10
2023-03-28T15:21:00.890Z,1.05
2023-03-28T15:23:38.272Z,1.20
2023-03-28T15:26:13.259Z,1.10
2023-03-28T15:28:40.584Z,0.90
2023-03-28T15:31:09.540Z,1.15
2023-03-28T15:33:36.535Z,1.05
2023-03-28T15:36:30.981Z,1.20
2023-03-28T15:39:32.402Z,1.40
2023-03-28T15:42:22.525Z,0.98
2023-03-28T15:45:11.874Z,0.80
2023-03-28T15:47:39.113Z,0.88
2023-03-28T15:50:13.145Z,0.82
2023-03-28T15:52:42.984Z,1.38
2023-03-28T15:55:21.130Z,1.20
2023-03-28T15:57:48.620Z,1.00
2023-03-28T16:00:38.585Z,1.15
2023-03-28T16:03:32.746Z,0.88
2023-03-28T16:06:11.874Z,1.20
2023-03-28T16:08:45.434Z,1.00
2023-03-28T16:11:23.340Z,0.68
2023-03-28T16:14:20.774Z,0.90
2023-03-28T16:16:56.393Z,1.15
2023-03-28T16:19:34.999Z,0.73
2023-03-28T16:22:02.658Z,0.80
2023-03-28T16:24:30.055Z,0.80
2023-03-28T16:26:57.383Z,1.42
2023-03-28T16:29:24.354Z,2.25
2023-03-28T16:31:51.348Z,2.88
2023-03-28T16:34:18.353Z,2.00
2023-03-28T16:36:45.707Z,1.50
2023-03-28T16:39:12.740Z,1.15
2023-03-28T16:41:39.797Z,0.80
2023-03-28T16:44:06.759Z,0.90
2023-03-28T16:46:34.189Z,0.90
2023-03-28T16:49:01.622Z,1.00
2023-03-28T16:51:28.609Z,0.80
2023-03-28T16:53:55.699Z,0.85
2023-03-28T16:56:25.636Z,0.60
2023-03-28T16:58:52.989Z,0.90
2023-03-28T17:01:20.423Z,0.93
2023-03-28T17:03:48.604Z,0.90
2023-03-28T17:06:16.938Z,0.77
2023-03-28T17:08:44.528Z,0.80
2023-03-28T17:11:12.570Z,1.08
2023-03-28T17:13:42.046Z,0.90
2023-03-28T17:16:10.610Z,1.13
2023-03-28T17:18:37.548Z,1.08
2023-03-28T17:21:11.116Z,0.90
2023-03-28T17:23:40.269Z,0.90
2023-03-28T17:26:10.056Z,0.95
2023-03-28T17:28:39.195Z,0.60
2023-03-28T17:31:13.456Z,1.05
2023-03-28T17:33:40.866Z,0.70
2023-03-28T17:36:21.761Z,1.23
2023-03-28T17:38:54.619Z,1.60
2023-03-28T17:41:24.860Z,1.33
2023-03-28T17:43:54.621Z,0.90
2023-03-28T17:46:22.959Z,0.80
2023-03-28T17:48:50.667Z,1.20
2023-03-28T17:51:17.995Z,1.70
2023-03-28T17:53:47.013Z,0.90
2023-03-28T17:56:16.201Z,0.98
2023-03-28T17:58:44.202Z,0.90
2023-03-28T18:01:14.616Z,1.00
2023-03-28T18:03:42.162Z,0.60
2023-03-28T18:06:17.443Z,0.98
2023-03-28T18:08:44.788Z,1.02
2023-03-28T18:11:16.156Z,0.95
2023-03-28T18:13:43.466Z,0.95
2023-03-28T18:16:17.852Z,1.17
2023-03-28T18:18:44.863Z,1.27
2023-03-28T18:21:12.674Z,1.40
2023-03-28T18:23:40.322Z,1.05
2023-03-28T18:26:07.982Z,1.02
2023-03-28T18:28:36.320Z,1.38
2023-03-28T18:31:08.930Z,1.73
2023-03-28T18:33:36.291Z,1.25
2023-03-28T18:36:03.574Z,1.30
2023-03-28T18:38:42.761Z,1.20
2023-03-28T18:41:12.379Z,0.93
2023-03-28T18:43:42.080Z,1.20
2023-03-28T18:46:15.440Z,1.23
2023-03-28T18:48:43.610Z,1.48
2023-03-28T18:51:11.789Z,1.40
2023-03-28T18:53:39.026Z,1.33
2023-03-28T18:56:08.143Z,1.35
2023-03-28T18:58:38.842Z,1.30
2023-03-28T19:01:08.768Z,1.30
2023-03-28T19:03:41.835Z,1.47
2023-03-28T19:06:12.334Z,1.40
2023-03-28T19:08:40.369Z,1.23
2023-03-28T19:11:15.310Z,0.95
2023-03-28T19:13:42.886Z,1.20
2023-03-28T19:16:13.738Z,1.30
2023-03-28T19:18:43.980Z,1.10
2023-03-28T19:21:11.926Z,0.95
2023-03-28T19:23:39.897Z,1.08
2023-03-28T19:26:09.384Z,1.50
2023-03-28T19:28:37.233Z,0.93
2023-03-28T19:31:07.447Z,1.20
2023-03-28T19:33:37.207Z,1.23
2023-03-28T19:36:06.246Z,1.00
2023-03-28T19:38:36.228Z,1.70
2023-03-28T19:41:16.162Z,1.00
2023-03-28T19:43:44.124Z,1.13
2023-03-28T19:46:23.018Z,1.00
2023-03-28T19:48:53.185Z,1.27
2023-03-28T19:51:20.228Z,1.25
2023-03-28T19:53:47.446Z,1.20
2023-03-28T19:56:14.751Z,1.10
2023-03-28T19:58:41.874Z,1.30
2023-03-28T20:01:08.909Z,1.50
2023-03-28T20:03:36.042Z,1.20
2023-03-28T20:06:09.533Z,1.55
2023-03-28T20:08:36.732Z,1.27
2023-03-28T20:11:07.814Z,1.20
2023-03-28T20:16:04.651Z,1.00
2023-03-28T20:18:32.626Z,1.60
2023-03-28T20:21:09.810Z,1.40
2023-03-28T20:23:37.164Z,1.45
2023-03-28T20:26:19.852Z,1.30
2023-03-28T20:28:49.518Z,1.40
2023-03-28T20:31:18.269Z,1.15
2023-03-28T20:33:46.088Z,1.30
2023-03-28T20:36:13.205Z,1.17
2023-03-28T20:38:40.550Z,1.38
2023-03-28T20:41:16.975Z,1.45
2023-03-28T20:43:47.389Z,1.42
2023-03-28T20:46:19.049Z,1.45
2023-03-28T20:48:51.927Z,1.63
2023-03-28T20:51:22.040Z,1.25
2023-03-28T20:54:01.201Z,1.30
2023-03-28T20:56:30.904Z,1.05
2023-03-28T20:58:59.441Z,1.30
2023-03-28T21:01:30.399Z,0.88
2023-03-28T21:03:59.789Z,1.02
2023-03-28T21:06:38.173Z,0.93
2023-03-28T21:09:09.765Z,0.70
2023-03-28T21:11:39.032Z,0.90
2023-03-28T21:14:08.116Z,0.88
2023-03-28T21:16:37.291Z,1.10
2023-03-28T21:19:04.646Z,1.10
2023-03-28T21:21:33.794Z,1.05
2023-03-28T21:24:02.371Z,1.23
2023-03-28T21:26:29.722Z,1.10
2023-03-28T21:28:56.807Z,1.00
2023-03-28T21:31:27.892Z,1.30
2023-03-28T21:33:57.201Z,1.73
2023-03-28T21:36:25.768Z,1.58
2023-03-28T21:38:52.928Z,1.63
2023-03-28T21:41:20.152Z,1.40
2023-03-28T21:43:48.103Z,1.67
2023-03-28T21:46:18.124Z,1.75
2023-03-28T21:48:47.572Z,1.60
2023-03-28T21:51:16.013Z,1.35
2023-03-28T21:53:42.941Z,1.50
2023-03-28T21:56:12.600Z,0.90
2023-03-28T21:58:40.020Z,0.73
2023-03-28T22:01:07.591Z,0.80
2023-03-28T22:03:38.192Z,1.05
2023-03-28T22:06:06.423Z,1.25
2023-03-28T22:08:33.478Z,1.02
2023-03-28T22:11:02.621Z,1.00
2023-03-28T22:13:30.506Z,1.25
2023-03-28T22:16:01.529Z,1.10
2023-03-28T22:21:02.124Z,0.85
2023-03-28T22:23:29.928Z,0.77
2023-03-28T22:25:58.430Z,1.00
2023-03-28T22:28:25.491Z,0.85
2023-03-28T22:30:56.722Z,1.00
2023-03-28T22:33:25.215Z,1.27
2023-03-28T22:35:52.648Z,0.90
2023-03-28T22:38:19.676Z,1.10
2023-03-28T22:40:47.568Z,0.98
2023-03-28T22:43:16.133Z,1.17
2023-03-28T22:45:43.546Z,1.00
2023-03-28T22:48:16.976Z,1.20
2023-03-28T22:50:44.626Z,0.90
2023-03-28T22:53:12.270Z,1.20
2023-03-28T22:55:39.586Z,0.90
2023-03-28T22:58:06.927Z,1.10
2023-03-28T23:00:34.723Z,1.05
2023-03-28T23:03:02.296Z,0.93
2023-03-28T23:05:29.653Z,1.10
2023-03-28T23:07:56.692Z,1.20
2023-03-28T23:10:24.227Z,1.45
2023-03-28T23:12:51.803Z,1.30
2023-03-28T23:15:18.815Z,1.35
2023-03-28T23:17:45.903Z,1.35
2023-03-28T23:20:15.745Z,1.05
2023-03-28T23:22:46.028Z,1.42
2023-03-28T23:25:15.556Z,1.58
2023-03-28T23:27:43.282Z,1.30
2023-03-28T23:30:13.602Z,1.50
2023-03-28T23:32:40.964Z,1.35
2023-03-28T23:35:10.318Z,1.20
2023-03-28T23:37:38.286Z,1.13
2023-03-28T23:40:11.432Z,1.00
2023-03-28T23:42:38.348Z,1.40
2023-03-28T23:45:06.678Z,1.58
2023-03-28T23:47:33.627Z,1.13
2023-03-28T23:50:00.581Z,1.30
2023-03-28T23:52:27.561Z,1.60
2023-03-28T23:54:54.490Z,1.20
2023-03-28T23:57:24.874Z,1.33
2023-03-28T23:59:51.839Z,1.20
